createdAt,value
2023-02-03T00:01:50.964Z,9.40
2023-02-03T00:04:17.644Z,9.40
2023-02-03T00:06:44.814Z,9.60
2023-02-03T00:09:11.471Z,8.57
2023-02-03T00:11:38.263Z,8.35
2023-02-03T00:14:05.660Z,8.82
2023-02-03T00:16:32.343Z,8.73
2023-02-03T00:18:59.232Z,8.68
2023-02-03T00:21:25.964Z,8.50
2023-02-03T00:23:52.732Z,8.45
2023-02-03T00:26:19.477Z,8.27
2023-02-03T00:28:46.222Z,9.35
2023-02-03T00:31:21.716Z,8.75
2023-02-03T00:33:48.975Z,8.60
2023-02-03T00:36:15.653Z,9.38
2023-02-03T00:38:42.335Z,8.98
2023-02-03T00:41:08.970Z,9.70
2023-02-03T00:43:35.702Z,10.30
2023-02-03T00:46:02.400Z,9.40
2023-02-03T00:48:29.892Z,10.65
2023-02-03T00:50:56.601Z,10.00
2023-02-03T00:53:23.419Z,10.68
2023-02-03T00:55:50.174Z,11.15
2023-02-03T00:58:16.773Z,11.35
2023-02-03T01:00:43.567Z,10.65
2023-02-03T01:03:10.620Z,11.18
2023-02-03T01:05:37.821Z,11.38
2023-02-03T01:08:04.856Z,10.68
2023-02-03T01:10:31.593Z,11.55
2023-02-03T01:12:58.313Z,10.15
2023-02-03T01:15:25.078Z,10.43
2023-02-03T01:17:51.744Z,10.25
2023-02-03T01:20:18.673Z,9.90
2023-02-03T01:22:45.310Z,10.23
2023-02-03T01:25:11.926Z,10.23
2023-02-03T01:27:38.644Z,10.10
2023-02-03T01:30:05.633Z,10.63
2023-02-03T01:32:32.358Z,10.30
2023-02-03T01:34:58.993Z,10.38
2023-02-03T01:37:25.777Z,10.63
2023-02-03T01:39:52.543Z,10.60
2023-02-03T01:42:19.173Z,11.07
2023-02-03T01:44:55.262Z,10.88
2023-02-03T01:47:30.917Z,11.40
2023-02-03T01:50:31.272Z,11.15
2023-02-03T01:53:03.546Z,11.55
2023-02-03T01:55:39.296Z,11.38
2023-02-03T01:58:25.903Z,11.20
2023-02-03T02:00:53.432Z,10.77
2023-02-03T02:03:21.797Z,11.38
2023-02-03T02:05:51.187Z,11.50
2023-02-03T02:08:19.418Z,11.23
2023-02-03T02:10:46.568Z,11.10
2023-02-03T02:13:13.599Z,10.75
2023-02-03T02:15:49.200Z,11.48
2023-02-03T02:19:01.229Z,11.07
2023-02-03T02:21:48.507Z,10.07
2023-02-03T02:24:42.706Z,10.45
2023-02-03T02:27:32.165Z,10.48
2023-02-03T02:30:39.028Z,11.18
2023-02-03T02:33:50.548Z,10.43
2023-02-03T02:36:27.577Z,10.15
2023-02-03T02:39:04.125Z,10.02
2023-02-03T02:42:03.233Z,10.43
2023-02-03T02:44:51.921Z,10.45
2023-02-03T02:47:20.516Z,9.38
2023-02-03T02:49:55.200Z,9.90
2023-02-03T02:54:52.748Z,9.35
2023-02-03T02:57:20.899Z,9.70
2023-02-03T02:59:48.274Z,10.05
2023-02-03T03:02:15.065Z,9.75
2023-02-03T03:04:42.367Z,9.57
2023-02-03T03:07:14.222Z,10.05
2023-02-03T03:09:43.633Z,10.02
2023-02-03T03:12:17.492Z,9.02
2023-02-03T03:14:47.894Z,8.85
2023-02-03T03:17:37.256Z,9.18
2023-02-03T03:20:08.368Z,9.23
2023-02-03T03:22:38.760Z,7.97
2023-02-03T03:25:11.171Z,8.32
2023-02-03T03:27:41.615Z,8.32
2023-02-03T03:30:26.553Z,7.75
2023-02-03T03:32:53.387Z,8.43
2023-02-03T03:35:20.113Z,8.40
2023-02-03T03:37:56.478Z,7.60
2023-02-03T03:41:01.210Z,6.70
2023-02-03T03:43:31.009Z,7.32
2023-02-03T03:46:16.976Z,6.18
2023-02-03T03:49:13.207Z,6.70
2023-02-03T03:51:56.966Z,6.45
2023-02-03T03:54:25.048Z,6.43
2023-02-03T03:57:25.700Z,6.78
2023-02-03T03:59:52.507Z,6.82
2023-02-03T04:02:20.318Z,6.75
2023-02-03T04:04:48.475Z,6.72
2023-02-03T04:07:15.760Z,7.50
2023-02-03T04:09:43.127Z,6.57
2023-02-03T04:12:16.747Z,6.55
2023-02-03T04:14:43.403Z,6.43
2023-02-03T04:17:10.132Z,6.50
2023-02-03T04:19:36.763Z,6.53
2023-02-03T04:22:03.427Z,6.40
2023-02-03T04:24:30.150Z,6.70
2023-02-03T04:26:56.882Z,6.38
2023-02-03T04:29:23.474Z,6.40
2023-02-03T04:31:50.177Z,6.60
2023-02-03T04:34:16.881Z,7.43
2023-02-03T04:36:43.807Z,6.97
2023-02-03T04:39:10.523Z,6.82
2023-02-03T04:41:37.456Z,6.60
2023-02-03T04:44:04.217Z,7.00
2023-02-03T04:46:30.875Z,6.72
2023-02-03T04:48:57.749Z,7.05
2023-02-03T04:51:24.497Z,6.45
2023-02-03T04:53:51.155Z,6.80
2023-02-03T04:56:17.799Z,7.35
2023-02-03T04:58:44.428Z,7.10
2023-02-03T05:01:11.364Z,6.70
2023-02-03T05:03:38.140Z,6.90
2023-02-03T05:06:05.753Z,6.00
2023-02-03T05:08:32.739Z,6.32
2023-02-03T05:11:01.858Z,6.03
2023-02-03T05:13:29.443Z,5.82
2023-02-03T05:15:56.200Z,5.88
2023-02-03T05:18:22.891Z,5.57
2023-02-03T05:20:49.723Z,5.72
2023-02-03T05:23:16.424Z,5.40
2023-02-03T05:25:44.248Z,5.47
2023-02-03T05:28:11.025Z,5.75
2023-02-03T05:30:37.689Z,5.30
2023-02-03T05:33:04.375Z,5.38
2023-02-03T05:35:30.977Z,5.40
2023-02-03T05:37:57.634Z,5.10
2023-02-03T05:40:42.705Z,5.50
2023-02-03T05:43:09.495Z,4.78
2023-02-03T05:45:36.374Z,4.82
2023-02-03T05:48:03.852Z,5.10
2023-02-03T05:50:36.791Z,4.75
2023-02-03T05:53:06.185Z,4.95
2023-02-03T05:55:33.861Z,5.00
2023-02-03T05:58:01.351Z,5.30
2023-02-03T06:00:29.123Z,4.57
2023-02-03T06:02:57.887Z,5.07
2023-02-03T06:05:25.707Z,5.50
2023-02-03T06:07:52.874Z,4.80
2023-02-03T06:10:19.910Z,5.10
2023-02-03T06:12:47.099Z,4.50
2023-02-03T06:15:14.562Z,4.70
2023-02-03T06:17:47.201Z,4.60
2023-02-03T06:20:15.688Z,4.90
2023-02-03T06:22:42.862Z,4.70
2023-02-03T06:25:12.920Z,5.13
2023-02-03T06:27:40.382Z,5.18
2023-02-03T06:30:08.412Z,4.80
2023-02-03T06:32:35.044Z,4.80
2023-02-03T06:35:02.045Z,4.50
2023-02-03T06:37:28.679Z,4.60
2023-02-03T06:39:55.371Z,4.55
2023-02-03T06:42:22.274Z,4.22
2023-02-03T06:44:48.903Z,4.10
2023-02-03T06:47:15.583Z,4.60
2023-02-03T06:49:42.433Z,4.63
2023-02-03T06:52:09.364Z,3.90
2023-02-03T06:54:36.183Z,4.03
2023-02-03T06:57:03.913Z,3.80
2023-02-03T06:59:30.563Z,3.75
2023-02-03T07:01:57.435Z,3.60
2023-02-03T07:04:24.112Z,3.65
2023-02-03T07:06:51.072Z,4.05
2023-02-03T07:09:17.774Z,3.75
2023-02-03T07:11:44.417Z,4.05
2023-02-03T07:14:11.043Z,3.80
2023-02-03T07:16:37.739Z,4.05
2023-02-03T07:19:04.701Z,4.20
2023-02-03T07:21:31.575Z,3.90
2023-02-03T07:23:58.534Z,4.07
2023-02-03T07:26:26.724Z,3.92
2023-02-03T07:28:54.752Z,4.47
2023-02-03T07:31:21.988Z,4.03
2023-02-03T07:33:49.171Z,4.18
2023-02-03T07:36:15.936Z,4.05
2023-02-03T07:38:42.770Z,4.30
2023-02-03T07:41:09.437Z,3.85
2023-02-03T07:43:36.234Z,4.55
2023-02-03T07:46:02.971Z,4.40
2023-02-03T07:48:29.640Z,4.03
2023-02-03T07:50:56.305Z,4.13
2023-02-03T07:53:22.951Z,3.83
2023-02-03T07:55:49.660Z,4.00
2023-02-03T07:58:17.256Z,4.07
2023-02-03T08:00:43.837Z,3.88
2023-02-03T08:03:10.609Z,3.80
2023-02-03T08:05:37.373Z,3.83
2023-02-03T08:08:04.312Z,4.25
2023-02-03T08:10:31.264Z,3.97
2023-02-03T08:12:58.003Z,4.22
2023-02-03T08:15:24.834Z,4.03
2023-02-03T08:17:51.992Z,4.43
2023-02-03T08:20:18.735Z,4.15
2023-02-03T08:22:45.670Z,4.63
2023-02-03T08:25:13.225Z,4.00
2023-02-03T08:27:40.639Z,4.00
2023-02-03T08:30:10.691Z,3.83
2023-02-03T08:32:37.703Z,4.25
2023-02-03T08:35:04.694Z,4.00
2023-02-03T08:37:32.787Z,4.13
2023-02-03T08:40:00.291Z,4.22
2023-02-03T08:42:27.306Z,3.90
2023-02-03T08:44:54.245Z,4.05
2023-02-03T08:47:20.985Z,4.10
2023-02-03T08:49:47.870Z,4.15
2023-02-03T08:52:17.339Z,4.28
2023-02-03T08:54:45.177Z,4.50
2023-02-03T08:57:11.866Z,4.15
2023-02-03T08:59:40.490Z,4.20
2023-02-03T09:02:10.931Z,4.43
2023-02-03T09:04:37.849Z,4.55
2023-02-03T09:07:04.594Z,4.90
2023-02-03T09:09:32.272Z,4.20
2023-02-03T09:12:02.628Z,4.50
2023-02-03T09:14:30.289Z,3.90
2023-02-03T09:16:57.192Z,4.50
2023-02-03T09:19:23.994Z,4.68
2023-02-03T09:21:51.251Z,4.35
2023-02-03T09:24:18.807Z,4.13
2023-02-03T09:26:45.695Z,3.92
2023-02-03T09:29:13.215Z,4.22
2023-02-03T09:31:40.103Z,4.45
2023-02-03T09:34:07.175Z,4.10
2023-02-03T09:36:34.257Z,4.10
2023-02-03T09:39:00.916Z,3.95
2023-02-03T09:41:49.523Z,4.63
2023-02-03T09:44:37.670Z,4.45
2023-02-03T09:47:14.525Z,4.05
2023-02-03T09:49:48.277Z,4.82
2023-02-03T09:52:20.167Z,4.93
2023-02-03T09:55:02.584Z,4.95
2023-02-03T09:57:31.977Z,4.80
2023-02-03T10:00:00.215Z,4.72
2023-02-03T10:02:51.807Z,4.57
2023-02-03T10:05:25.843Z,5.03
2023-02-03T10:08:04.997Z,5.05
2023-02-03T10:10:46.013Z,5.07
2023-02-03T10:13:22.879Z,5.03
2023-02-03T10:16:11.593Z,4.90
2023-02-03T10:18:58.716Z,4.93
2023-02-03T10:21:38.196Z,5.22
2023-02-03T10:24:14.808Z,4.40
2023-02-03T10:26:42.193Z,4.43
2023-02-03T10:29:22.002Z,4.70
2023-02-03T10:31:49.796Z,4.90
2023-02-03T10:34:19.998Z,4.00
2023-02-03T10:36:57.505Z,4.15
2023-02-03T10:39:45.290Z,3.80
2023-02-03T10:42:13.365Z,4.10
2023-02-03T10:45:03.833Z,4.20
2023-02-03T10:47:36.955Z,3.80
2023-02-03T10:50:08.242Z,3.85
2023-02-03T10:52:36.443Z,3.40
2023-02-03T10:55:07.247Z,3.60
2023-02-03T10:57:37.011Z,3.60
2023-02-03T11:00:07.265Z,3.50
2023-02-03T11:02:34.510Z,3.20
2023-02-03T11:05:21.596Z,3.22
2023-02-03T11:07:48.833Z,3.13
2023-02-03T11:10:39.153Z,3.25
2023-02-03T11:13:26.112Z,3.75
2023-02-03T11:16:00.053Z,3.10
2023-02-03T11:18:34.232Z,2.88
2023-02-03T11:23:27.457Z,2.05
2023-02-03T11:25:54.469Z,2.10
2023-02-03T11:28:22.242Z,2.13
2023-02-03T11:30:56.053Z,1.98
2023-02-03T11:33:25.001Z,2.03
2023-02-03T11:35:57.461Z,1.90
2023-02-03T11:38:31.464Z,1.80
2023-02-03T11:41:02.233Z,2.13
2023-02-03T11:43:30.159Z,2.17
2023-02-03T11:46:03.366Z,1.90
2023-02-03T11:48:33.448Z,2.03
2023-02-03T11:51:30.288Z,1.85
2023-02-03T11:54:19.908Z,2.10
2023-02-03T11:57:25.804Z,2.10
2023-02-03T12:00:32.005Z,1.77
2023-02-03T12:03:26.968Z,1.88
2023-02-03T12:06:03.190Z,1.50
2023-02-03T12:08:46.658Z,1.80
2023-02-03T12:11:37.935Z,1.90
2023-02-03T12:14:39.377Z,2.30
2023-02-03T12:17:37.007Z,1.50
2023-02-03T12:20:22.855Z,1.60
2023-02-03T12:23:13.935Z,1.30
2023-02-03T12:26:19.502Z,1.50
2023-02-03T12:28:52.129Z,1.30
2023-02-03T12:31:29.564Z,1.20
2023-02-03T12:34:29.633Z,1.13
2023-02-03T12:37:04.296Z,1.10
2023-02-03T12:39:43.272Z,1.20
2023-02-03T12:42:18.401Z,1.40
2023-02-03T12:45:01.837Z,1.20
2023-02-03T12:47:35.051Z,1.42
2023-02-03T12:50:07.884Z,1.30
2023-02-03T12:52:44.367Z,1.00
2023-02-03T12:55:44.649Z,1.13
2023-02-03T12:58:26.409Z,1.20
2023-02-03T13:01:06.822Z,1.50
2023-02-03T13:03:56.252Z,1.38
2023-02-03T13:06:39.860Z,1.60
2023-02-03T13:09:45.909Z,1.50
2023-02-03T13:12:24.284Z,1.30
2023-02-03T13:15:43.643Z,1.60
2023-02-03T13:18:35.039Z,1.58
2023-02-03T13:21:01.757Z,1.48
2023-02-03T13:23:28.570Z,1.40
2023-02-03T13:26:20.783Z,1.92
2023-02-03T13:29:36.663Z,2.10
2023-02-03T13:32:36.869Z,1.67
2023-02-03T13:35:32.234Z,1.80
2023-02-03T13:38:41.609Z,2.30
2023-02-03T13:41:28.722Z,2.20
2023-02-03T13:43:57.531Z,2.30
2023-02-03T13:46:27.203Z,2.78
2023-02-03T13:48:54.591Z,2.22
2023-02-03T13:51:24.109Z,3.20
2023-02-03T13:53:52.852Z,3.28
2023-02-03T13:56:24.546Z,2.67
2023-02-03T13:59:06.802Z,2.78
2023-02-03T14:01:38.843Z,2.85
2023-02-03T14:04:16.914Z,2.10
2023-02-03T14:07:31.045Z,2.30
2023-02-03T14:10:21.606Z,2.70
2023-02-03T14:13:18.841Z,2.30
2023-02-03T14:15:47.307Z,2.05
2023-02-03T14:18:32.230Z,2.10
2023-02-03T14:21:11.173Z,2.30
2023-02-03T14:23:44.764Z,2.25
2023-02-03T14:26:30.494Z,1.98
2023-02-03T14:28:57.412Z,1.95
2023-02-03T14:31:25.525Z,1.33
2023-02-03T14:34:13.408Z,1.63
2023-02-03T14:36:53.258Z,1.38
2023-02-03T14:39:48.885Z,1.60
2023-02-03T14:43:08.628Z,1.30
2023-02-03T14:46:16.427Z,1.30
2023-02-03T14:48:57.597Z,1.52
2023-02-03T14:52:01.565Z,1.65
2023-02-03T14:54:34.377Z,1.65
2023-02-03T14:57:53.278Z,1.50
2023-02-03T15:00:33.656Z,1.73
2023-02-03T15:03:31.439Z,1.90
2023-02-03T15:06:01.635Z,2.03
2023-02-03T15:08:43.216Z,1.60
2023-02-03T15:11:45.360Z,2.38
2023-02-03T15:14:26.345Z,2.40
2023-02-03T15:17:04.593Z,1.85
2023-02-03T15:19:38.358Z,1.80
2023-02-03T15:22:28.642Z,1.90
2023-02-03T15:25:00.166Z,1.75
2023-02-03T15:27:29.107Z,2.50
2023-02-03T15:29:59.217Z,4.47
2023-02-03T15:32:35.318Z,2.03
2023-02-03T15:35:05.451Z,3.08
2023-02-03T15:37:40.085Z,2.22
2023-02-03T15:40:19.923Z,2.40
2023-02-03T15:43:16.048Z,1.88
2023-02-03T15:46:04.270Z,1.80
2023-02-03T15:48:52.868Z,1.85
2023-02-03T15:51:23.133Z,2.65
2023-02-03T15:54:16.124Z,1.95
2023-02-03T15:56:45.152Z,2.00
2023-02-03T15:59:36.252Z,2.03
2023-02-03T16:02:15.088Z,2.45
2023-02-03T16:04:41.799Z,1.67
2023-02-03T16:07:19.370Z,1.90
2023-02-03T16:09:46.405Z,2.30
2023-02-03T16:12:33.055Z,1.77
2023-02-03T16:15:02.335Z,1.63
2023-02-03T16:17:34.468Z,2.13
2023-02-03T16:20:23.140Z,1.65
2023-02-03T16:23:30.137Z,2.08
2023-02-03T16:26:22.921Z,1.70
2023-02-03T16:29:35.733Z,2.10
2023-02-03T16:32:20.993Z,1.88
2023-02-03T16:35:06.286Z,2.17
2023-02-03T16:37:54.241Z,2.10
2023-02-03T16:40:41.529Z,2.25
2023-02-03T16:43:31.949Z,1.90
2023-02-03T16:46:18.386Z,2.05
2023-02-03T16:49:03.785Z,2.63
2023-02-03T16:51:41.860Z,1.83
2023-02-03T16:54:13.524Z,2.10
2023-02-03T16:56:43.785Z,2.03
2023-02-03T16:59:10.891Z,2.30
2023-02-03T17:01:37.646Z,1.73
2023-02-03T17:04:04.743Z,2.63
2023-02-03T17:06:33.314Z,2.13
2023-02-03T17:09:00.005Z,2.40
2023-02-03T17:11:27.181Z,2.10
2023-02-03T17:13:57.639Z,2.33
2023-02-03T17:16:25.999Z,2.42
2023-02-03T17:18:53.143Z,2.53
2023-02-03T17:21:26.376Z,3.00
2023-02-03T17:23:53.239Z,1.90
2023-02-03T17:26:19.904Z,2.47
2023-02-03T17:28:46.582Z,2.22
2023-02-03T17:31:15.978Z,2.70
2023-02-03T17:33:43.293Z,2.50
2023-02-03T17:36:15.842Z,2.25
2023-02-03T17:54:54.313Z,2.40
2023-02-03T17:57:21.038Z,1.98
2023-02-03T17:59:47.624Z,1.92
2023-02-03T18:02:17.525Z,1.85
2023-02-03T18:04:44.676Z,2.40
2023-02-03T18:07:11.561Z,2.53
2023-02-03T18:09:38.231Z,2.40
2023-02-03T18:12:05.285Z,2.42
2023-02-03T18:14:32.028Z,2.85
2023-02-03T18:16:58.651Z,2.40
2023-02-03T18:19:25.386Z,2.40
2023-02-03T18:21:52.252Z,2.42
2023-02-03T18:24:27.289Z,2.60
2023-02-03T18:26:54.138Z,2.50
2023-02-03T18:29:21.061Z,2.40
2023-02-03T18:31:48.298Z,2.75
2023-02-03T18:37:45.835Z,2.40
2023-02-03T18:40:12.814Z,2.47
2023-02-03T18:42:42.841Z,3.67
2023-02-03T18:45:11.427Z,2.33
2023-02-03T18:47:38.079Z,2.80
2023-02-03T18:50:05.419Z,2.53
2023-02-03T18:52:32.137Z,2.97
2023-02-03T18:54:59.350Z,2.15
2023-02-03T18:57:26.484Z,2.83
2023-02-03T18:59:53.208Z,2.88
2023-02-03T19:02:19.994Z,2.58
2023-02-03T19:04:46.602Z,2.95
2023-02-03T19:07:13.244Z,2.70
2023-02-03T19:09:40.866Z,2.58
2023-02-03T19:12:10.878Z,2.63
2023-02-03T19:14:37.670Z,2.53
2023-02-03T19:17:04.913Z,2.78
2023-02-03T19:19:31.549Z,2.38
2023-02-03T19:21:58.700Z,2.58
2023-02-03T19:24:27.011Z,2.78
2023-02-03T19:26:54.412Z,3.40
2023-02-03T19:29:21.057Z,2.28
2023-02-03T19:31:48.116Z,2.63
2023-02-03T19:34:16.305Z,2.03
2023-02-03T19:36:43.358Z,2.38
2023-02-03T19:39:10.900Z,1.70
2023-02-03T19:41:37.607Z,2.13
2023-02-03T19:44:05.962Z,2.90
2023-02-03T19:46:37.509Z,2.17
2023-02-03T19:49:11.683Z,2.35
2023-02-03T19:51:38.688Z,2.05
2023-02-03T19:54:05.703Z,2.28
2023-02-03T19:56:32.810Z,2.30
2023-02-03T19:59:00.095Z,2.50
2023-02-03T20:01:27.471Z,2.33
2023-02-03T20:03:54.060Z,2.00
2023-02-03T20:06:20.802Z,2.35
2023-02-03T20:08:47.458Z,1.98
2023-02-03T20:11:14.375Z,3.03
2023-02-03T20:13:42.468Z,2.10
2023-02-03T20:16:09.386Z,2.58
2023-02-03T20:18:36.158Z,2.10
2023-02-03T20:21:02.861Z,2.50
2023-02-03T20:23:29.578Z,7.30
2023-02-03T20:25:56.368Z,2.92
2023-02-03T20:28:25.160Z,2.25
2023-02-03T20:30:53.376Z,3.22
2023-02-03T20:33:27.440Z,2.47
2023-02-03T20:35:55.196Z,2.22
2023-02-03T20:38:22.023Z,3.22
2023-02-03T20:40:49.104Z,2.30
2023-02-03T20:43:27.504Z,1.73
2023-02-03T20:45:54.612Z,2.38
2023-02-03T20:48:25.909Z,2.42
2023-02-03T20:50:52.978Z,3.17
2023-02-03T20:53:22.022Z,2.65
2023-02-03T20:55:49.042Z,2.15
2023-02-03T20:58:40.300Z,2.33
2023-02-03T21:01:13.813Z,1.90
2023-02-03T21:03:59.247Z,2.20
2023-02-03T21:06:26.416Z,2.05
2023-02-03T21:08:53.291Z,1.88
2023-02-03T21:11:21.603Z,2.42
2023-02-03T21:13:50.038Z,2.35
2023-02-03T21:16:21.941Z,2.33
2023-02-03T21:18:57.042Z,2.10
2023-02-03T21:21:35.326Z,2.40
2023-02-03T21:24:04.114Z,2.33
2023-02-03T21:26:34.006Z,2.00
2023-02-03T21:29:01.608Z,2.50
2023-02-03T21:31:33.751Z,2.40
2023-02-03T21:34:02.817Z,2.45
2023-02-03T21:36:36.041Z,2.05
2023-02-03T21:39:03.001Z,2.40
2023-02-03T21:41:33.389Z,2.38
2023-02-03T21:44:00.072Z,2.28
2023-02-03T21:46:32.803Z,2.40
2023-02-03T21:49:00.720Z,2.15
2023-02-03T21:51:30.197Z,2.40
2023-02-03T21:54:24.082Z,2.20
2023-02-03T21:56:51.018Z,2.42
2023-02-03T21:59:23.595Z,2.08
2023-02-03T22:01:50.540Z,2.47
2023-02-03T22:04:17.199Z,2.30
2023-02-03T22:06:55.082Z,1.90
2023-02-03T22:09:23.705Z,2.20
2023-02-03T22:11:50.774Z,2.40
2023-02-03T22:14:18.422Z,3.20
2023-02-03T22:16:45.222Z,2.88
2023-02-03T22:19:12.121Z,2.15
2023-02-03T22:21:39.169Z,1.75
2023-02-03T22:24:06.634Z,2.60
2023-02-03T22:26:33.421Z,2.22
2023-02-03T22:29:00.118Z,2.28
2023-02-03T22:31:27.237Z,2.45
2023-02-03T22:33:54.204Z,2.67
2023-02-03T22:36:23.631Z,1.90
2023-02-03T22:38:50.385Z,2.22
2023-02-03T22:41:17.082Z,1.65
2023-02-03T22:43:43.904Z,2.10
2023-02-03T22:46:10.670Z,2.35
2023-02-03T22:48:37.562Z,3.00
2023-02-03T22:51:05.160Z,2.22
2023-02-03T22:53:32.321Z,2.33
2023-02-03T22:55:59.051Z,1.80
2023-02-03T22:58:25.678Z,2.03
2023-02-03T23:00:52.335Z,2.30
2023-02-03T23:03:19.461Z,1.88
2023-02-03T23:05:46.134Z,2.17
2023-02-03T23:08:12.902Z,2.30
2023-02-03T23:10:39.695Z,2.15
2023-02-03T23:13:06.716Z,2.00
2023-02-03T23:15:33.540Z,2.70
2023-02-03T23:18:00.322Z,2.35
2023-02-03T23:20:27.045Z,2.30
2023-02-03T23:22:53.884Z,2.40
2023-02-03T23:25:20.580Z,2.17
2023-02-03T23:27:47.332Z,2.20
2023-02-03T23:30:15.321Z,3.15
2023-02-03T23:32:42.083Z,2.15
2023-02-03T23:35:27.911Z,2.75
2023-02-03T23:37:55.079Z,1.98
2023-02-03T23:40:21.903Z,2.90
2023-02-03T23:42:48.581Z,2.60
2023-02-03T23:45:15.769Z,1.98
2023-02-03T23:47:44.000Z,2.35
2023-02-03T23:50:17.426Z,2.47
2023-02-03T23:52:44.088Z,2.73
2023-02-03T23:55:16.555Z,2.33
2023-02-03T23:57:43.218Z,2.50
